ADDS - METARS form results

Aviation Digital Data Service (ADDS)

Output produced by METARs form (2139 UTC 19 February 2019)
found at http://aviationweather.gov/metar/data/
 
METAR text: KPNT 192135Z AUTO 00000KT 10SM OVC024 00/M03 A3048 RMK AO2 T00001034
Conditions at: KPNT (PONTIAC , IL, US) observed 2135 UTC 19 February 2019
Temperature: 0.0°C (32°F)
Dewpoint: -3.4°C (26°F) [RH = 78%]
Pressure (altimeter): 30.48 inches Hg (1032.3 mb)
Winds: calm
Visibility: 10 or more miles (16+ km)
Ceiling: 2400 feet AGL
Clouds: overcast cloud deck at 2400 feet AGL
Weather: automated observation with no human augmentation;
there may or may not be significant weather present at this time

METAR text: KPNT 192115Z AUTO 11008KT 10SM OVC022 00/M03 A3049 RMK AO2 T10011026
Conditions at: KPNT (PONTIAC , IL, US) observed 2115 UTC 19 February 2019
Temperature: -0.1°C (32°F)
Dewpoint: -2.6°C (27°F) [RH = 83%]
Pressure (altimeter): 30.49 inches Hg (1032.6 mb)
Winds: from the ESE (110 degrees) at 9 MPH (8 knots; 4.1 m/s)
Visibility: 10 or more miles (16+ km)
Ceiling: 2200 feet AGL
Clouds: overcast cloud deck at 2200 feet AGL
Weather: automated observation with no human augmentation;
there may or may not be significant weather present at this time

METAR text: KPNT 192055Z AUTO 12007KT 10SM OVC024 00/M03 A3049 RMK AO2 T00001032
Conditions at: KPNT (PONTIAC , IL, US) observed 2055 UTC 19 February 2019
Temperature: 0.0°C (32°F)
Dewpoint: -3.2°C (26°F) [RH = 79%]
Pressure (altimeter): 30.49 inches Hg (1032.6 mb)
Winds: from the ESE (120 degrees) at 8 MPH (7 knots; 3.6 m/s)
Visibility: 10 or more miles (16+ km)
Ceiling: 2400 feet AGL
Clouds: overcast cloud deck at 2400 feet AGL
Weather: automated observation with no human augmentation;
there may or may not be significant weather present at this time